sensor_id;sensor_type;location;lat;lon;timestamp;temperature;humidity
21267;DHT22;10791;53.108;18.326;2024-03-17T00:01:16;4.20;99.90
21267;DHT22;10791;53.108;18.326;2024-03-17T00:06:38;4.20;99.90
21267;DHT22;10791;53.108;18.326;2024-03-17T00:11:40;4.20;99.90
21267;DHT22;10791;53.108;18.326;2024-03-17T00:16:42;4.20;99.90
21267;DHT22;10791;53.108;18.326;2024-03-17T00:21:48;4.30;99.90
21267;DHT22;10791;53.108;18.326;2024-03-17T00:26:52;4.30;99.90
21267;DHT22;10791;53.108;18.326;2024-03-17T00:31:55;4.30;99.90
21267;DHT22;10791;53.108;18.326;2024-03-17T00:36:59;4.20;99.90
21267;DHT22;10791;53.108;18.326;2024-03-17T00:42:01;4.20;99.90
21267;DHT22;10791;53.108;18.326;2024-03-17T00:47:03;4.20;99.90
21267;DHT22;10791;53.108;18.326;2024-03-17T00:52:05;4.40;99.90
21267;DHT22;10791;53.108;18.326;2024-03-17T00:57:08;4.40;99.90
21267;DHT22;10791;53.108;18.326;2024-03-17T01:02:11;4.40;99.90
21267;DHT22;10791;53.108;18.326;2024-03-17T01:07:18;4.50;99.90
21267;DHT22;10791;53.108;18.326;2024-03-17T01:12:21;4.60;99.90
21267;DHT22;10791;53.108;18.326;2024-03-17T01:17:23;4.60;99.90
21267;DHT22;10791;53.108;18.326;2024-03-17T01:22:25;4.70;99.90
21267;DHT22;10791;53.108;18.326;2024-03-17T01:27:27;4.70;99.90
21267;DHT22;10791;53.108;18.326;2024-03-17T01:32:30;4.80;99.90
21267;DHT22;10791;53.108;18.326;2024-03-17T01:37:32;4.80;99.90
21267;DHT22;10791;53.108;18.326;2024-03-17T01:42:35;4.90;99.90
21267;DHT22;10791;53.108;18.326;2024-03-17T01:47:39;4.90;99.90
21267;DHT22;10791;53.108;18.326;2024-03-17T01:52:41;5.00;99.90
21267;DHT22;10791;53.108;18.326;2024-03-17T01:57:44;5.10;99.90
21267;DHT22;10791;53.108;18.326;2024-03-17T02:02:47;5.10;99.90
21267;DHT22;10791;53.108;18.326;2024-03-17T02:07:50;5.10;99.90
21267;DHT22;10791;53.108;18.326;2024-03-17T02:12:52;5.10;99.90
21267;DHT22;10791;53.108;18.326;2024-03-17T02:17:56;5.10;99.90
21267;DHT22;10791;53.108;18.326;2024-03-17T02:23:02;5.10;99.90
21267;DHT22;10791;53.108;18.326;2024-03-17T02:28:05;5.10;99.90
21267;DHT22;10791;53.108;18.326;2024-03-17T02:33:07;5.10;99.90
21267;DHT22;10791;53.108;18.326;2024-03-17T02:38:10;5.10;99.90
21267;DHT22;10791;53.108;18.326;2024-03-17T02:43:17;5.10;99.90
21267;DHT22;10791;53.108;18.326;2024-03-17T02:48:20;5.20;99.90
21267;DHT22;10791;53.108;18.326;2024-03-17T02:53:26;5.20;99.90
21267;DHT22;10791;53.108;18.326;2024-03-17T02:58:28;5.20;99.90
21267;DHT22;10791;53.108;18.326;2024-03-17T03:03:34;5.20;99.90
21267;DHT22;10791;53.108;18.326;2024-03-17T03:08:38;5.20;99.90
21267;DHT22;10791;53.108;18.326;2024-03-17T03:13:42;5.20;99.90
21267;DHT22;10791;53.108;18.326;2024-03-17T03:18:47;5.10;99.90
21267;DHT22;10791;53.108;18.326;2024-03-17T03:23:49;5.00;99.90
21267;DHT22;10791;53.108;18.326;2024-03-17T03:28:51;5.00;99.90
21267;DHT22;10791;53.108;18.326;2024-03-17T03:33:54;4.90;99.90
21267;DHT22;10791;53.108;18.326;2024-03-17T03:38:59;5.00;99.90
21267;DHT22;10791;53.108;18.326;2024-03-17T03:44:04;5.00;99.90
21267;DHT22;10791;53.108;18.326;2024-03-17T03:49:06;5.00;99.90
21267;DHT22;10791;53.108;18.326;2024-03-17T03:54:10;5.00;99.90
21267;DHT22;10791;53.108;18.326;2024-03-17T03:59:12;5.00;99.90
21267;DHT22;10791;53.108;18.326;2024-03-17T04:04:15;5.10;99.90
21267;DHT22;10791;53.108;18.326;2024-03-17T04:09:17;5.10;99.90
21267;DHT22;10791;53.108;18.326;2024-03-17T04:14:22;5.00;99.90
21267;DHT22;10791;53.108;18.326;2024-03-17T04:19:25;5.10;99.90
21267;DHT22;10791;53.108;18.326;2024-03-17T04:24:28;5.10;99.90
21267;DHT22;10791;53.108;18.326;2024-03-17T04:29:30;5.10;99.90
21267;DHT22;10791;53.108;18.326;2024-03-17T04:34:35;5.10;99.90
21267;DHT22;10791;53.108;18.326;2024-03-17T04:39:47;4.70;99.90
21267;DHT22;10791;53.108;18.326;2024-03-17T04:44:49;4.30;99.90
21267;DHT22;10791;53.108;18.326;2024-03-17T04:49:53;4.20;99.90
21267;DHT22;10791;53.108;18.326;2024-03-17T04:55:00;4.00;99.90
21267;DHT22;10791;53.108;18.326;2024-03-17T05:00:03;4.10;99.90
21267;DHT22;10791;53.108;18.326;2024-03-17T05:05:09;4.10;99.90
21267;DHT22;10791;53.108;18.326;2024-03-17T05:10:12;4.10;99.90
21267;DHT22;10791;53.108;18.326;2024-03-17T05:15:14;4.10;99.90
21267;DHT22;10791;53.108;18.326;2024-03-17T05:20:16;4.10;99.90
21267;DHT22;10791;53.108;18.326;2024-03-17T05:25:18;4.10;99.90
21267;DHT22;10791;53.108;18.326;2024-03-17T05:30:22;4.20;99.90
21267;DHT22;10791;53.108;18.326;2024-03-17T05:35:24;4.30;99.90
21267;DHT22;10791;53.108;18.326;2024-03-17T05:40:27;4.40;99.90
21267;DHT22;10791;53.108;18.326;2024-03-17T05:45:31;4.40;99.90
21267;DHT22;10791;53.108;18.326;2024-03-17T05:50:35;4.40;99.90
21267;DHT22;10791;53.108;18.326;2024-03-17T05:55:37;4.40;99.90
21267;DHT22;10791;53.108;18.326;2024-03-17T06:00:45;4.40;99.90
21267;DHT22;10791;53.108;18.326;2024-03-17T06:05:48;4.40;99.90
21267;DHT22;10791;53.108;18.326;2024-03-17T06:10:53;4.40;99.90
21267;DHT22;10791;53.108;18.326;2024-03-17T06:16:04;4.50;99.90
21267;DHT22;10791;53.108;18.326;2024-03-17T06:21:12;4.50;99.90
21267;DHT22;10791;53.108;18.326;2024-03-17T06:26:20;4.50;99.90
21267;DHT22;10791;53.108;18.326;2024-03-17T06:31:25;4.50;99.90
21267;DHT22;10791;53.108;18.326;2024-03-17T06:36:27;4.60;99.90
21267;DHT22;10791;53.108;18.326;2024-03-17T06:41:29;4.60;99.90
21267;DHT22;10791;53.108;18.326;2024-03-17T06:46:31;4.60;99.90
21267;DHT22;10791;53.108;18.326;2024-03-17T06:51:33;4.70;99.90
21267;DHT22;10791;53.108;18.326;2024-03-17T06:56:35;4.80;99.90
21267;DHT22;10791;53.108;18.326;2024-03-17T07:01:39;4.90;99.90
21267;DHT22;10791;53.108;18.326;2024-03-17T07:06:41;4.90;99.90
21267;DHT22;10791;53.108;18.326;2024-03-17T07:11:43;4.90;99.90
21267;DHT22;10791;53.108;18.326;2024-03-17T07:16:48;4.90;99.90
21267;DHT22;10791;53.108;18.326;2024-03-17T07:21:50;4.90;99.90
21267;DHT22;10791;53.108;18.326;2024-03-17T07:26:53;4.90;99.90
21267;DHT22;10791;53.108;18.326;2024-03-17T07:31:55;4.90;99.90
21267;DHT22;10791;53.108;18.326;2024-03-17T07:36:58;4.90;99.90
21267;DHT22;10791;53.108;18.326;2024-03-17T07:42:05;4.90;99.90
21267;DHT22;10791;53.108;18.326;2024-03-17T07:47:08;4.90;99.90
21267;DHT22;10791;53.108;18.326;2024-03-17T07:52:10;4.90;99.90
21267;DHT22;10791;53.108;18.326;2024-03-17T07:57:12;4.90;99.90
21267;DHT22;10791;53.108;18.326;2024-03-17T08:02:17;4.90;99.90
21267;DHT22;10791;53.108;18.326;2024-03-17T08:07:19;5.00;99.90
21267;DHT22;10791;53.108;18.326;2024-03-17T08:12:22;5.10;99.90
21267;DHT22;10791;53.108;18.326;2024-03-17T08:17:24;5.40;99.90
21267;DHT22;10791;53.108;18.326;2024-03-17T08:22:32;5.40;99.90
21267;DHT22;10791;53.108;18.326;2024-03-17T08:27:34;5.40;99.90
21267;DHT22;10791;53.108;18.326;2024-03-17T08:32:36;5.30;99.90
21267;DHT22;10791;53.108;18.326;2024-03-17T08:37:38;5.10;99.90
21267;DHT22;10791;53.108;18.326;2024-03-17T08:42:42;5.00;99.90
21267;DHT22;10791;53.108;18.326;2024-03-17T08:47:45;4.80;99.90
21267;DHT22;10791;53.108;18.326;2024-03-17T08:52:49;4.50;99.90
21267;DHT22;10791;53.108;18.326;2024-03-17T08:57:54;4.50;99.90
21267;DHT22;10791;53.108;18.326;2024-03-17T09:02:59;4.70;99.90
21267;DHT22;10791;53.108;18.326;2024-03-17T09:08:04;5.20;99.90
21267;DHT22;10791;53.108;18.326;2024-03-17T09:13:17;5.80;99.90
21267;DHT22;10791;53.108;18.326;2024-03-17T09:18:23;6.40;99.90
21267;DHT22;10791;53.108;18.326;2024-03-17T09:23:29;6.40;99.90
21267;DHT22;10791;53.108;18.326;2024-03-17T09:28:33;6.50;99.90
21267;DHT22;10791;53.108;18.326;2024-03-17T09:33:37;6.40;99.90
21267;DHT22;10791;53.108;18.326;2024-03-17T09:38:43;6.70;99.90
21267;DHT22;10791;53.108;18.326;2024-03-17T09:43:49;6.80;99.90
21267;DHT22;10791;53.108;18.326;2024-03-17T09:48:53;6.90;99.90
21267;DHT22;10791;53.108;18.326;2024-03-17T09:53:59;7.10;99.90
21267;DHT22;10791;53.108;18.326;2024-03-17T09:59:03;7.00;99.90
21267;DHT22;10791;53.108;18.326;2024-03-17T10:04:05;6.90;99.90
21267;DHT22;10791;53.108;18.326;2024-03-17T10:09:16;7.00;99.90
21267;DHT22;10791;53.108;18.326;2024-03-17T10:14:23;7.20;99.90
21267;DHT22;10791;53.108;18.326;2024-03-17T10:19:35;6.80;99.90
21267;DHT22;10791;53.108;18.326;2024-03-17T10:24:44;6.50;99.90
21267;DHT22;10791;53.108;18.326;2024-03-17T10:29:52;6.50;99.90
21267;DHT22;10791;53.108;18.326;2024-03-17T10:35:00;6.80;99.90
21267;DHT22;10791;53.108;18.326;2024-03-17T10:40:03;7.10;99.90
21267;DHT22;10791;53.108;18.326;2024-03-17T10:45:08;7.10;99.90
21267;DHT22;10791;53.108;18.326;2024-03-17T10:50:22;6.60;99.90
21267;DHT22;10791;53.108;18.326;2024-03-17T10:55:26;5.70;99.90
21267;DHT22;10791;53.108;18.326;2024-03-17T11:00:30;5.40;99.90
21267;DHT22;10791;53.108;18.326;2024-03-17T11:05:34;5.20;99.90
21267;DHT22;10791;53.108;18.326;2024-03-17T11:10:36;5.00;99.90
21267;DHT22;10791;53.108;18.326;2024-03-17T11:15:40;5.10;99.90
21267;DHT22;10791;53.108;18.326;2024-03-17T11:20:44;5.30;99.90
21267;DHT22;10791;53.108;18.326;2024-03-17T11:25:58;5.50;99.90
21267;DHT22;10791;53.108;18.326;2024-03-17T11:31:01;5.60;99.90
21267;DHT22;10791;53.108;18.326;2024-03-17T11:46:45;5.50;99.90
21267;DHT22;10791;53.108;18.326;2024-03-17T11:51:50;5.50;99.90
21267;DHT22;10791;53.108;18.326;2024-03-17T11:56:53;5.30;99.90
21267;DHT22;10791;53.108;18.326;2024-03-17T12:01:56;5.10;99.90
21267;DHT22;10791;53.108;18.326;2024-03-17T12:06:59;5.10;99.90
21267;DHT22;10791;53.108;18.326;2024-03-17T12:12:08;5.20;99.90
21267;DHT22;10791;53.108;18.326;2024-03-17T12:17:12;5.40;99.90
21267;DHT22;10791;53.108;18.326;2024-03-17T12:22:22;5.20;99.90
21267;DHT22;10791;53.108;18.326;2024-03-17T12:27:25;4.70;99.90
21267;DHT22;10791;53.108;18.326;2024-03-17T12:32:28;4.50;99.90
21267;DHT22;10791;53.108;18.326;2024-03-17T12:37:31;4.40;99.90
21267;DHT22;10791;53.108;18.326;2024-03-17T12:42:36;4.60;99.90
21267;DHT22;10791;53.108;18.326;2024-03-17T12:47:40;4.50;99.90
21267;DHT22;10791;53.108;18.326;2024-03-17T12:52:52;4.60;99.90
21267;DHT22;10791;53.108;18.326;2024-03-17T13:03:25;4.90;99.90
21267;DHT22;10791;53.108;18.326;2024-03-17T13:08:27;5.30;99.90
21267;DHT22;10791;53.108;18.326;2024-03-17T13:13:30;5.40;99.90
21267;DHT22;10791;53.108;18.326;2024-03-17T13:18:33;5.10;99.90
21267;DHT22;10791;53.108;18.326;2024-03-17T13:23:35;4.30;99.90
21267;DHT22;10791;53.108;18.326;2024-03-17T13:28:37;3.90;99.90
21267;DHT22;10791;53.108;18.326;2024-03-17T13:33:39;3.70;99.90
21267;DHT22;10791;53.108;18.326;2024-03-17T13:38:41;3.60;99.90
21267;DHT22;10791;53.108;18.326;2024-03-17T13:43:44;3.60;99.90
21267;DHT22;10791;53.108;18.326;2024-03-17T13:48:46;3.70;99.90
21267;DHT22;10791;53.108;18.326;2024-03-17T13:53:50;3.70;99.90
21267;DHT22;10791;53.108;18.326;2024-03-17T13:58:52;3.60;99.90
21267;DHT22;10791;53.108;18.326;2024-03-17T14:03:55;3.50;99.90
21267;DHT22;10791;53.108;18.326;2024-03-17T14:08:57;3.60;99.90
21267;DHT22;10791;53.108;18.326;2024-03-17T14:13:59;3.70;99.90
21267;DHT22;10791;53.108;18.326;2024-03-17T14:19:02;3.80;99.90
21267;DHT22;10791;53.108;18.326;2024-03-17T14:24:07;3.90;99.90
21267;DHT22;10791;53.108;18.326;2024-03-17T14:29:11;4.00;99.90
21267;DHT22;10791;53.108;18.326;2024-03-17T14:34:13;4.00;99.90
21267;DHT22;10791;53.108;18.326;2024-03-17T14:39:17;4.10;99.90
21267;DHT22;10791;53.108;18.326;2024-03-17T14:44:24;4.00;99.90
21267;DHT22;10791;53.108;18.326;2024-03-17T14:49:29;3.40;99.90
21267;DHT22;10791;53.108;18.326;2024-03-17T14:54:32;3.10;99.90
21267;DHT22;10791;53.108;18.326;2024-03-17T14:59:34;3.20;99.90
21267;DHT22;10791;53.108;18.326;2024-03-17T15:04:36;3.30;99.90
21267;DHT22;10791;53.108;18.326;2024-03-17T15:09:38;3.40;99.90
21267;DHT22;10791;53.108;18.326;2024-03-17T15:14:42;3.40;99.90
21267;DHT22;10791;53.108;18.326;2024-03-17T15:19:48;3.30;99.90
21267;DHT22;10791;53.108;18.326;2024-03-17T15:24:50;3.20;99.90
21267;DHT22;10791;53.108;18.326;2024-03-17T15:29:52;3.20;99.90
21267;DHT22;10791;53.108;18.326;2024-03-17T15:34:55;3.20;99.90
21267;DHT22;10791;53.108;18.326;2024-03-17T15:40:00;3.30;99.90
21267;DHT22;10791;53.108;18.326;2024-03-17T15:45:04;3.30;99.90
21267;DHT22;10791;53.108;18.326;2024-03-17T15:50:09;3.30;99.90
21267;DHT22;10791;53.108;18.326;2024-03-17T15:55:12;3.40;99.90
21267;DHT22;10791;53.108;18.326;2024-03-17T16:00:14;3.40;99.90
21267;DHT22;10791;53.108;18.326;2024-03-17T16:05:19;3.50;99.90
21267;DHT22;10791;53.108;18.326;2024-03-17T16:10:21;3.50;99.90
21267;DHT22;10791;53.108;18.326;2024-03-17T16:15:24;3.30;99.90
21267;DHT22;10791;53.108;18.326;2024-03-17T16:25:42;3.30;99.90
21267;DHT22;10791;53.108;18.326;2024-03-17T16:30:45;3.20;99.90
21267;DHT22;10791;53.108;18.326;2024-03-17T16:35:47;3.10;99.90
21267;DHT22;10791;53.108;18.326;2024-03-17T16:40:50;3.10;99.90
21267;DHT22;10791;53.108;18.326;2024-03-17T16:46:20;3.00;99.90
21267;DHT22;10791;53.108;18.326;2024-03-17T16:51:27;2.90;99.90
21267;DHT22;10791;53.108;18.326;2024-03-17T16:56:31;2.90;99.90
21267;DHT22;10791;53.108;18.326;2024-03-17T17:01:34;2.90;99.90
21267;DHT22;10791;53.108;18.326;2024-03-17T17:06:41;2.80;99.90
21267;DHT22;10791;53.108;18.326;2024-03-17T17:11:46;2.70;99.90
21267;DHT22;10791;53.108;18.326;2024-03-17T17:16:52;2.70;99.90
21267;DHT22;10791;53.108;18.326;2024-03-17T17:21:55;2.60;99.90
21267;DHT22;10791;53.108;18.326;2024-03-17T17:26:59;2.50;99.90
21267;DHT22;10791;53.108;18.326;2024-03-17T17:32:05;2.40;99.90
21267;DHT22;10791;53.108;18.326;2024-03-17T17:37:10;2.40;99.90
21267;DHT22;10791;53.108;18.326;2024-03-17T17:42:13;2.30;99.90
21267;DHT22;10791;53.108;18.326;2024-03-17T17:47:16;2.20;99.90
21267;DHT22;10791;53.108;18.326;2024-03-17T17:52:20;2.20;99.90
21267;DHT22;10791;53.108;18.326;2024-03-17T17:57:26;2.20;99.90
21267;DHT22;10791;53.108;18.326;2024-03-17T18:02:30;2.10;99.90
21267;DHT22;10791;53.108;18.326;2024-03-17T18:07:33;2.10;99.90
21267;DHT22;10791;53.108;18.326;2024-03-17T18:12:36;2.10;99.90
21267;DHT22;10791;53.108;18.326;2024-03-17T18:17:40;2.10;99.90
21267;DHT22;10791;53.108;18.326;2024-03-17T18:22:43;2.00;99.90
21267;DHT22;10791;53.108;18.326;2024-03-17T18:27:45;2.00;99.90
21267;DHT22;10791;53.108;18.326;2024-03-17T18:32:48;2.00;99.90
21267;DHT22;10791;53.108;18.326;2024-03-17T18:37:51;2.00;99.90
21267;DHT22;10791;53.108;18.326;2024-03-17T18:42:59;1.90;99.90
21267;DHT22;10791;53.108;18.326;2024-03-17T18:48:05;1.90;99.90
21267;DHT22;10791;53.108;18.326;2024-03-17T18:53:11;1.80;99.90
21267;DHT22;10791;53.108;18.326;2024-03-17T18:58:19;1.80;99.90
21267;DHT22;10791;53.108;18.326;2024-03-17T19:03:24;1.80;99.90
21267;DHT22;10791;53.108;18.326;2024-03-17T19:08:32;1.80;99.90
21267;DHT22;10791;53.108;18.326;2024-03-17T19:13:34;1.80;99.90
21267;DHT22;10791;53.108;18.326;2024-03-17T19:18:38;1.80;99.90
21267;DHT22;10791;53.108;18.326;2024-03-17T19:23:43;1.70;99.90
21267;DHT22;10791;53.108;18.326;2024-03-17T19:28:51;1.80;99.90
21267;DHT22;10791;53.108;18.326;2024-03-17T19:33:57;1.80;99.90
21267;DHT22;10791;53.108;18.326;2024-03-17T19:39:05;1.70;99.90
21267;DHT22;10791;53.108;18.326;2024-03-17T19:44:14;1.70;99.90
21267;DHT22;10791;53.108;18.326;2024-03-17T19:49:21;1.70;99.90
21267;DHT22;10791;53.108;18.326;2024-03-17T19:54:27;1.80;99.90
21267;DHT22;10791;53.108;18.326;2024-03-17T19:59:32;1.70;99.90
21267;DHT22;10791;53.108;18.326;2024-03-17T20:04:34;1.70;99.90
21267;DHT22;10791;53.108;18.326;2024-03-17T20:09:36;1.70;99.90
21267;DHT22;10791;53.108;18.326;2024-03-17T20:14:39;1.70;99.90
21267;DHT22;10791;53.108;18.326;2024-03-17T20:19:42;1.70;99.90
21267;DHT22;10791;53.108;18.326;2024-03-17T20:24:46;1.60;99.90
21267;DHT22;10791;53.108;18.326;2024-03-17T20:29:49;1.70;99.90
21267;DHT22;10791;53.108;18.326;2024-03-17T20:34:52;1.70;99.90
21267;DHT22;10791;53.108;18.326;2024-03-17T20:39:56;1.70;99.90
21267;DHT22;10791;53.108;18.326;2024-03-17T20:44:58;1.60;99.90
21267;DHT22;10791;53.108;18.326;2024-03-17T20:50:02;1.70;99.90
21267;DHT22;10791;53.108;18.326;2024-03-17T20:55:07;1.60;99.90
21267;DHT22;10791;53.108;18.326;2024-03-17T21:00:22;1.60;99.90
21267;DHT22;10791;53.108;18.326;2024-03-17T21:05:27;1.70;99.90
21267;DHT22;10791;53.108;18.326;2024-03-17T21:10:31;1.60;99.90
21267;DHT22;10791;53.108;18.326;2024-03-17T21:15:33;1.60;99.90
21267;DHT22;10791;53.108;18.326;2024-03-17T21:20:36;1.60;99.90
21267;DHT22;10791;53.108;18.326;2024-03-17T21:25:40;1.60;99.90
21267;DHT22;10791;53.108;18.326;2024-03-17T21:30:46;1.60;99.90
21267;DHT22;10791;53.108;18.326;2024-03-17T21:35:50;1.60;99.90
21267;DHT22;10791;53.108;18.326;2024-03-17T21:40:54;1.60;99.90
21267;DHT22;10791;53.108;18.326;2024-03-17T21:45:59;1.60;99.90
21267;DHT22;10791;53.108;18.326;2024-03-17T21:51:02;1.60;99.90
21267;DHT22;10791;53.108;18.326;2024-03-17T21:56:06;1.50;99.90
21267;DHT22;10791;53.108;18.326;2024-03-17T22:01:11;1.50;99.90
21267;DHT22;10791;53.108;18.326;2024-03-17T22:06:17;1.60;99.90
21267;DHT22;10791;53.108;18.326;2024-03-17T22:11:19;1.50;99.90
21267;DHT22;10791;53.108;18.326;2024-03-17T22:16:23;1.60;99.90
21267;DHT22;10791;53.108;18.326;2024-03-17T22:21:29;1.60;99.90
21267;DHT22;10791;53.108;18.326;2024-03-17T22:26:31;1.60;99.90
21267;DHT22;10791;53.108;18.326;2024-03-17T22:31:35;1.60;99.90
21267;DHT22;10791;53.108;18.326;2024-03-17T22:36:37;1.50;99.90
21267;DHT22;10791;53.108;18.326;2024-03-17T22:41:39;1.60;99.90
21267;DHT22;10791;53.108;18.326;2024-03-17T22:46:43;1.60;99.90
21267;DHT22;10791;53.108;18.326;2024-03-17T22:51:49;1.60;99.90
21267;DHT22;10791;53.108;18.326;2024-03-17T22:56:54;1.50;99.90
21267;DHT22;10791;53.108;18.326;2024-03-17T23:01:56;1.50;99.90
21267;DHT22;10791;53.108;18.326;2024-03-17T23:06:58;1.50;99.90
21267;DHT22;10791;53.108;18.326;2024-03-17T23:12:00;1.50;99.90
21267;DHT22;10791;53.108;18.326;2024-03-17T23:17:06;1.50;99.90
21267;DHT22;10791;53.108;18.326;2024-03-17T23:22:11;1.50;99.90
21267;DHT22;10791;53.108;18.326;2024-03-17T23:27:14;1.50;99.90
21267;DHT22;10791;53.108;18.326;2024-03-17T23:32:18;1.40;99.90
21267;DHT22;10791;53.108;18.326;2024-03-17T23:37:23;1.50;99.90
21267;DHT22;10791;53.108;18.326;2024-03-17T23:42:25;1.50;99.90
21267;DHT22;10791;53.108;18.326;2024-03-17T23:47:27;1.40;99.90
21267;DHT22;10791;53.108;18.326;2024-03-17T23:52:36;1.40;99.90
21267;DHT22;10791;53.108;18.326;2024-03-17T23:57:39;1.30;99.90
